Time;durP1;ratioP1;P1;durP2;ratioP2;P2;SDS_P1;SDS_P2;PMS_P1;PMS_P2;Temp;Humidity;BMP_temperature;BMP_pressure;BME280_temperature;BME280_humidity;BME280_pressure;Samples;Min_cycle;Max_cycle;Signal;HPM_P1;HPM_P2
2022/08/05 00:05:14;;;;;;;4.57;2.47;;;;;;;20.67;57.03;100290.22;10421837;28;20691;-78
2022/08/05 00:10:36;;;;;;;5.28;2.30;;;;;;;21.17;54.87;100284.53;10431528;28;20220;-78
2022/08/05 00:15:58;;;;;;;5.10;2.55;;;;;;;20.64;56.09;100286.09;10381315;28;20594;-78
2022/08/05 00:21:21;;;;;;;8.07;2.42;;;;;;;21.26;54.26;100277.16;10390486;28;20205;-78
2022/08/05 00:26:43;;;;;;;3.15;1.92;;;;;;;20.83;53.97;100267.72;10418306;28;20263;-75
2022/08/05 00:32:06;;;;;;;2.03;1.40;;;;;;;20.55;53.54;100265.63;10370811;28;20498;-75
2022/08/05 00:37:28;;;;;;;2.83;2.10;;;;;;;20.75;53.91;100274.66;10375488;28;20281;-75
2022/08/05 00:42:50;;;;;;;5.55;2.03;;;;;;;20.90;53.33;100256.28;10389864;28;20677;-75
2022/08/05 00:48:14;;;;;;;4.90;1.77;;;;;;;20.80;51.89;100257.13;10407484;28;20212;-75
2022/08/05 00:53:36;;;;;;;2.80;1.45;;;;;;;20.76;52.18;100253.38;10398811;28;20684;-75
2022/08/05 00:58:58;;;;;;;2.92;1.40;;;;;;;20.88;51.69;100249.34;10403857;28;20196;-75
2022/08/05 01:04:20;;;;;;;4.28;1.15;;;;;;;20.72;51.49;100253.38;10409714;28;20266;-75
2022/08/05 01:09:43;;;;;;;3.88;1.23;;;;;;;20.67;51.79;100261.56;10411224;28;20224;-76
2022/08/05 01:15:07;;;;;;;5.72;1.73;;;;;;;20.97;51.31;100252.59;10393573;28;20189;-76
2022/08/05 01:20:41;;;;;;;2.53;1.50;;;;;;;20.67;52.60;100256.66;10397360;28;20250;-76
2022/08/05 01:26:36;;;;;;;4.45;1.90;;;;;;;21.04;50.98;100259.16;10382170;28;20626;-76
2022/08/05 01:32:02;;;;;;;2.88;1.50;;;;;;;21.04;50.37;100259.16;10387578;28;20302;-77
2022/08/05 01:37:56;;;;;;;2.25;1.50;;;;;;;21.23;50.42;100277.16;10404224;28;20620;-76
2022/08/05 01:43:19;;;;;;;5.00;1.95;;;;;;;21.20;51.11;100273.09;10368884;28;20211;-76
2022/08/05 01:48:43;;;;;;;4.43;1.70;;;;;;;21.57;49.32;100275.53;10395416;28;20617;-77
2022/08/05 01:54:06;;;;;;;4.00;1.45;;;;;;;20.90;49.51;100296.41;10400899;28;20193;-77
2022/08/05 01:59:30;;;;;;;3.67;1.50;;;;;;;21.25;50.27;100300.50;10399802;28;20193;-76
2022/08/05 02:04:54;;;;;;;3.45;1.48;;;;;;;20.89;50.39;100297.63;10411636;28;20220;-77
2022/08/05 02:10:16;;;;;;;2.25;1.90;;;;;;;21.02;49.65;100281.69;10411522;28;20237;-77
2022/08/05 02:15:54;;;;;;;3.15;1.40;;;;;;;21.36;48.71;100293.53;10402746;28;20227;-77
2022/08/05 02:21:19;;;;;;;5.85;2.13;;;;;;;21.13;49.55;100290.28;10388381;28;20267;-77
2022/08/05 02:26:46;;;;;;;4.05;1.90;;;;;;;20.71;50.46;100311.88;10410401;28;20197;-77
2022/08/05 02:32:08;;;;;;;2.75;1.63;;;;;;;19.96;53.81;100347.13;10383928;28;20247;-77
2022/08/05 02:37:32;;;;;;;4.65;2.28;;;;;;;20.02;54.07;100346.38;10406507;28;20252;-76
2022/08/05 02:42:55;;;;;;;5.70;2.33;;;;;;;19.43;55.94;100379.00;10417655;28;20184;-76
2022/08/05 02:48:18;;;;;;;4.35;2.08;;;;;;;20.10;54.73;100378.69;10402340;28;20549;-76
2022/08/05 02:53:40;;;;;;;5.57;1.95;;;;;;;19.99;53.67;100378.63;10418770;28;20256;-77
2022/08/05 02:59:03;;;;;;;3.72;2.15;;;;;;;19.48;54.93;100367.22;10386399;28;20663;-77
2022/08/05 03:04:26;;;;;;;5.82;2.60;;;;;;;19.97;54.02;100354.50;10399592;28;20217;-77
2022/08/05 03:09:49;;;;;;;3.95;2.63;;;;;;;19.24;56.67;100357.22;10397094;28;20232;-77
2022/08/05 03:15:11;;;;;;;4.82;2.80;;;;;;;19.80;56.27;100378.91;10399858;28;20254;-77
2022/08/05 03:20:33;;;;;;;4.78;2.88;;;;;;;19.29;57.11;100393.16;10416047;28;20196;-86
2022/08/05 03:25:55;;;;;;;7.05;3.30;;;;;;;19.25;57.03;100392.31;10394971;28;20197;-77
2022/08/05 03:31:17;;;;;;;5.25;3.40;;;;;;;18.87;59.25;100388.66;10402842;28;20217;-77
2022/08/05 03:36:39;;;;;;;3.80;3.40;;;;;;;19.30;57.19;100383.38;10399499;28;20221;-77
2022/08/05 03:42:02;;;;;;;6.82;3.58;;;;;;;19.02;59.27;100372.47;10405539;28;20200;-77
2022/08/05 03:47:24;;;;;;;8.73;3.80;;;;;;;18.62;61.63;100319.81;10396118;28;20197;-79
2022/08/05 03:52:57;;;;;;;9.95;4.50;;;;;;;18.63;64.76;100306.38;10399189;28;20228;-79
2022/08/05 03:58:21;;;;;;;7.63;4.47;;;;;;;19.22;62.13;100255.94;10400581;28;20196;-79
2022/08/05 04:03:45;;;;;;;9.50;4.85;;;;;;;18.78;64.55;100222.50;10401324;28;20201;-78
2022/08/05 04:09:07;;;;;;;11.65;5.47;;;;;;;18.75;64.31;100225.31;10417292;28;20338;-77
2022/08/05 04:14:29;;;;;;;8.70;6.10;;;;;;;18.97;63.51;100258.59;10410359;28;20680;-82
2022/08/05 04:19:52;;;;;;;9.23;5.57;;;;;;;18.89;64.52;100277.66;10406391;28;20189;-80
2022/08/05 04:25:14;;;;;;;9.43;5.47;;;;;;;19.05;64.28;100294.56;10410425;28;20274;-85
2022/08/05 04:30:36;;;;;;;8.85;5.53;;;;;;;19.15;64.08;100307.31;10412453;28;20251;-82
2022/08/05 04:35:58;;;;;;;8.40;6.03;;;;;;;18.85;65.18;100331.09;10405376;28;20637;-83
2022/08/05 04:41:20;;;;;;;9.40;6.38;;;;;;;19.20;65.00;100338.38;10393333;28;20200;-88
2022/08/05 04:46:42;;;;;;;10.85;5.63;;;;;;;19.40;63.06;100334.88;10397862;28;20201;-84
2022/08/05 04:52:05;;;;;;;7.45;5.47;;;;;;;18.98;63.32;100343.91;10390340;28;20275;-80
2022/08/05 04:57:27;;;;;;;9.60;5.38;;;;;;;18.66;64.03;100334.13;10376642;28;20322;-85
2022/08/05 05:02:49;;;;;;;11.45;6.07;;;;;;;19.04;63.54;100350.88;10398003;28;20189;-86
2022/08/05 05:08:13;;;;;;;9.38;6.70;;;;;;;18.51;64.88;100369.44;10379847;28;20223;-78
2022/08/05 05:13:35;;;;;;;13.88;7.95;;;;;;;18.86;64.52;100372.72;10403911;28;20208;-77
2022/08/05 05:18:57;;;;;;;12.68;8.52;;;;;;;19.00;63.86;100324.31;10398988;28;20536;-78
2022/08/05 05:24:20;;;;;;;14.60;11.18;;;;;;;19.18;63.06;100346.53;10393754;28;20190;-78
2022/08/05 05:29:42;;;;;;;17.77;13.60;;;;;;;19.13;63.14;100358.31;10406515;28;20248;-79
2022/08/05 05:35:05;;;;;;;20.38;13.10;;;;;;;19.03;63.50;100343.53;10393948;28;20667;-78
2022/08/05 05:40:28;;;;;;;18.52;13.73;;;;;;;19.05;63.72;100351.72;10403330;28;20204;-78
2022/08/05 05:45:50;;;;;;;17.85;13.75;;;;;;;18.93;64.58;100357.72;10392473;28;20262;-80
2022/08/05 05:51:22;;;;;;;16.85;11.82;;;;;;;19.36;62.55;100341.78;10392849;28;20287;-78
2022/08/05 05:56:45;;;;;;;18.65;13.32;;;;;;;18.85;64.04;100325.38;10404636;28;20197;-82
2022/08/05 06:02:07;;;;;;;14.77;12.82;;;;;;;19.09;63.82;100334.59;10400390;28;20248;-79
2022/08/05 06:07:29;;;;;;;22.08;14.07;;;;;;;19.24;64.63;100342.09;10391828;28;20248;-79
2022/08/05 06:12:51;;;;;;;18.88;13.15;;;;;;;19.25;63.96;100347.41;10416904;28;20220;-79
2022/08/05 06:18:13;;;;;;;20.50;13.70;;;;;;;19.25;64.01;100352.31;10385907;28;20262;-81
2022/08/05 06:23:35;;;;;;;17.25;14.70;;;;;;;20.00;61.39;100347.97;10393469;28;20200;-81
2022/08/05 06:28:58;;;;;;;15.45;13.75;;;;;;;19.49;63.10;100368.03;10380657;28;20574;-80
2022/08/05 06:34:20;;;;;;;17.27;15.45;;;;;;;19.73;62.50;100351.09;10404399;28;20217;-78
2022/08/05 06:39:42;;;;;;;15.88;14.25;;;;;;;19.10;62.99;100359.09;10411597;28;20220;-79
2022/08/05 06:45:05;;;;;;;12.25;10.93;;;;;;;19.95;60.08;100365.50;10403830;28;20193;-78
2022/08/05 06:50:27;;;;;;;15.07;11.13;;;;;;;19.01;62.05;100380.22;10415026;28;20225;-78
2022/08/05 06:55:49;;;;;;;20.38;14.10;;;;;;;19.57;61.31;100390.59;10399340;28;20249;-79
2022/08/05 07:01:11;;;;;;;16.92;12.77;;;;;;;19.18;61.23;100409.38;10411157;28;20193;-79
2022/08/05 07:06:33;;;;;;;14.50;12.77;;;;;;;18.39;64.88;100429.63;10936100;22;20227;-79
2022/08/05 07:11:55;;;;;;;16.35;10.93;;;;;;;17.45;67.61;100437.88;10435868;28;20313;-78
2022/08/05 07:17:18;;;;;;;16.88;12.18;;;;;;;18.50;63.38;100444.84;10439320;28;20238;-78
2022/08/05 07:22:40;;;;;;;16.85;11.95;;;;;;;18.71;61.04;100433.72;10447806;28;20269;-78
2022/08/05 07:28:02;;;;;;;14.30;11.60;;;;;;;19.41;59.49;100444.31;10461425;28;20249;-78
2022/08/05 07:33:25;;;;;;;15.02;11.13;;;;;;;19.16;59.60;100440.38;10434430;28;20223;-78
2022/08/05 07:38:47;;;;;;;14.48;11.68;;;;;;;18.98;59.79;100455.31;10458918;28;20196;-78
2022/08/05 07:44:09;;;;;;;15.07;10.98;;;;;;;18.77;60.66;100466.41;10442380;28;20204;-78
2022/08/05 07:49:31;;;;;;;13.93;10.13;;;;;;;19.16;59.27;100471.81;10443749;28;20251;-78
2022/08/05 07:54:53;;;;;;;16.80;9.77;;;;;;;18.80;60.05;100473.41;10459988;28;20192;-78
2022/08/05 08:00:16;;;;;;;12.70;8.60;;;;;;;19.12;58.27;100479.53;10457225;28;20242;-78
2022/08/05 08:05:42;;;;;;;9.75;7.45;;;;;;;18.62;59.51;100479.69;10467152;28;20224;-78
2022/08/05 08:11:04;;;;;;;10.52;6.85;;;;;;;18.50;59.12;100481.97;10433572;28;20557;-78
2022/08/05 08:16:27;;;;;;;12.63;6.47;;;;;;;18.27;60.82;100485.69;10435408;28;20338;-78
2022/08/05 08:21:49;;;;;;;9.02;6.00;;;;;;;18.86;57.38;100503.28;10435484;28;20266;-78
2022/08/05 08:27:11;;;;;;;7.97;5.72;;;;;;;18.60;57.87;100518.41;10432900;28;20200;-77
2022/08/05 08:32:35;;;;;;;10.13;5.68;;;;;;;18.50;57.48;100541.91;10449098;28;20247;-78
2022/08/05 08:37:57;;;;;;;7.20;5.32;;;;;;;17.89;60.46;100542.94;10448279;28;20258;-78
2022/08/05 08:43:20;;;;;;;11.05;5.10;;;;;;;18.01;59.97;100545.59;10439515;28;20241;-79
2022/08/05 08:48:45;;;;;;;7.35;5.47;;;;;;;18.67;58.03;100552.78;10457035;28;20192;-78
2022/08/05 08:54:09;;;;;;;9.80;5.20;;;;;;;18.82;57.64;100568.91;10455963;28;20204;-78
2022/08/05 08:59:31;;;;;;;8.45;4.65;;;;;;;18.76;57.00;100570.44;10454711;28;20592;-78
2022/08/05 09:04:53;;;;;;;7.60;5.35;;;;;;;18.58;57.39;100592.19;10444260;28;20204;-78
2022/08/05 09:10:15;;;;;;;5.40;4.03;;;;;;;19.12;55.56;100582.41;10451878;28;20265;-78
2022/08/05 09:15:38;;;;;;;9.50;4.28;;;;;;;18.15;58.40;100584.94;10441716;28;20247;-78
2022/08/05 09:21:00;;;;;;;7.80;4.72;;;;;;;18.65;56.72;100592.28;10435713;28;20195;-78
2022/08/05 09:26:22;;;;;;;8.55;4.13;;;;;;;18.33;57.27;100598.34;10450629;28;20199;-78
2022/08/05 09:32:00;;;;;;;8.02;2.95;;;;;;;19.10;54.31;100607.66;10447812;28;20273;-78
2022/08/05 09:37:25;;;;;;;5.13;3.28;;;;;;;18.77;54.57;100617.78;10442619;28;20266;-78
2022/08/05 09:42:48;;;;;;;5.28;2.97;;;;;;;19.43;53.58;100616.25;10446059;28;20246;-78
2022/08/05 09:48:24;;;;;;;5.68;3.25;;;;;;;19.14;54.00;100619.94;10453496;28;20670;-78
2022/08/05 09:53:51;;;;;;;5.35;2.92;;;;;;;18.97;53.91;100625.06;10439618;28;20256;-78
2022/08/05 09:59:15;;;;;;;6.72;3.33;;;;;;;19.32;53.84;100618.16;10426430;28;20227;-78
2022/08/05 10:04:38;;;;;;;5.25;2.50;;;;;;;19.15;52.39;100633.84;10430406;28;20216;-78
2022/08/05 10:10:00;;;;;;;7.25;3.10;;;;;;;19.40;52.86;100634.19;10434098;28;20255;-78
2022/08/05 10:15:30;;;;;;;5.45;2.75;;;;;;;19.22;52.93;100650.28;10454572;28;20207;-78
2022/08/05 10:21:00;;;;;;;6.55;3.22;;;;;;;18.93;52.52;100658.44;10437015;28;20309;-77
2022/08/05 10:26:23;;;;;;;8.05;3.17;;;;;;;19.28;53.38;100665.88;10449007;28;20312;-79
2022/08/05 10:31:45;;;;;;;3.97;2.83;;;;;;;18.92;53.08;100673.91;10445207;28;20720;-79
2022/08/05 10:37:10;;;;;;;9.00;3.22;;;;;;;19.06;53.94;100681.06;10441915;28;20293;-83
2022/08/05 10:42:37;;;;;;;4.20;2.60;;;;;;;18.49;55.29;100705.81;10445331;28;20230;-79
2022/08/05 10:48:27;;;;;;;4.72;3.35;;;;;;;18.93;54.56;100695.56;10454196;28;20227;-80
2022/08/05 10:53:49;;;;;;;5.53;3.13;;;;;;;19.22;53.96;100710.28;10456786;28;20219;-77
2022/08/05 10:59:15;;;;;;;7.13;3.30;;;;;;;19.25;54.84;100709.53;10434406;28;20237;-78
2022/08/05 11:04:45;;;;;;;7.13;2.60;;;;;;;18.93;53.64;100721.28;10410139;28;20200;-80
2022/08/05 11:10:20;;;;;;;4.57;2.15;;;;;;;19.09;52.42;100731.72;10459168;28;20519;-77
2022/08/05 11:15:44;;;;;;;4.72;2.20;;;;;;;19.87;51.04;100744.28;10436034;28;20210;-79
2022/08/05 11:21:30;;;;;;;5.57;2.67;;;;;;;19.17;53.12;100742.88;10458628;28;20188;-79
2022/08/05 11:27:28;;;;;;;6.00;2.92;;;;;;;18.62;53.97;100750.09;10416859;28;20445;-84
2022/08/05 11:32:50;;;;;;;7.68;4.20;;;;;;;20.18;50.93;100748.72;10423485;28;20223;-78
2022/08/05 11:38:12;;;;;;;5.22;2.30;;;;;;;20.57;47.87;100761.44;10428849;28;20334;-78
2022/08/05 11:43:34;;;;;;;3.90;1.60;;;;;;;20.54;47.51;100755.72;10438132;28;20203;-78
2022/08/05 11:48:57;;;;;;;3.22;1.48;;;;;;;20.09;45.93;100751.91;10442707;28;20584;-87
2022/08/05 11:54:23;;;;;;;3.03;1.40;;;;;;;21.13;45.13;100749.69;10421773;28;20705;-79
2022/08/05 11:59:45;;;;;;;2.03;1.45;;;;;;;20.35;46.62;100753.88;10437322;28;20245;-83
2022/08/05 12:05:24;;;;;;;3.95;1.60;;;;;;;21.71;45.30;100737.38;10442976;28;20266;-78
2022/08/05 12:10:47;;;;;;;2.90;1.38;;;;;;;22.02;43.49;100740.81;10414598;28;20265;-77
2022/08/05 12:16:16;;;;;;;1.42;1.33;;;;;;;21.82;42.84;100734.56;10439036;28;20248;-87
2022/08/05 12:21:49;;;;;;;3.45;1.35;;;;;;;20.67;44.40;100748.47;10440069;28;20196;-77
2022/08/05 12:27:28;;;;;;;3.70;1.52;;;;;;;21.27;43.42;100742.41;10431447;28;21266;-85
2022/08/05 12:32:54;;;;;;;3.47;1.60;;;;;;;20.72;45.18;100766.09;10424656;28;20208;-78
2022/08/05 12:38:16;;;;;;;2.63;1.50;;;;;;;20.75;44.30;100770.22;10436085;28;20212;-78
2022/08/05 12:43:53;;;;;;;2.10;1.75;;;;;;;19.68;45.50;100780.41;10419307;28;20204;-77
2022/08/05 12:49:16;;;;;;;5.18;1.75;;;;;;;21.21;45.55;100778.44;10443645;28;20200;-77
2022/08/05 12:54:39;;;;;;;2.28;1.63;;;;;;;20.56;43.72;100776.19;10433419;28;20243;-77
2022/08/05 13:00:02;;;;;;;3.28;1.45;;;;;;;22.19;40.47;100771.63;10449405;28;20196;-77
2022/08/05 13:05:24;;;;;;;3.10;1.98;;;;;;;21.74;41.47;100779.59;10446293;28;20643;-77
2022/08/05 13:10:47;;;;;;;4.00;1.63;;;;;;;20.59;42.37;100787.66;10416861;28;20519;-86
2022/08/05 13:16:12;;;;;;;4.50;1.40;;;;;;;20.59;43.74;100801.16;10442246;28;20218;-78
2022/08/05 13:21:35;;;;;;;3.53;1.90;;;;;;;19.90;44.98;100804.44;10456841;28;20188;-78
2022/08/05 13:26:57;;;;;;;2.50;1.55;;;;;;;19.96;44.47;100814.28;10448895;28;20187;-78
2022/08/05 13:32:20;;;;;;;2.28;1.40;;;;;;;20.42;44.12;100812.06;10442814;28;20293;-84
2022/08/05 13:37:42;;;;;;;2.47;1.58;;;;;;;20.26;42.76;100814.31;10452096;28;20588;-86
2022/08/05 13:43:04;;;;;;;2.22;1.27;;;;;;;20.95;42.25;100823.22;10444387;28;20200;-80
2022/08/05 13:48:26;;;;;;;4.18;1.95;;;;;;;20.39;42.19;100823.44;10441877;28;20283;-77
2022/08/05 13:53:48;;;;;;;3.65;1.80;;;;;;;20.33;42.24;100819.28;10450883;28;20247;-82
2022/08/05 13:59:10;;;;;;;3.75;1.80;;;;;;;20.04;42.64;100832.41;10450806;28;20222;-88
2022/08/05 14:10:24;;;;;;;5.20;1.63;;;;;;;21.01;41.61;100838.03;10385877;28;20205;-77
2022/08/05 14:15:46;;;;;;;1.77;1.20;;;;;;;20.47;42.50;100848.06;10384246;28;20197;-78
2022/08/05 14:21:08;;;;;;;2.90;1.60;;;;;;;19.55;43.26;100855.34;10382894;28;20216;-78
2022/08/05 14:26:30;;;;;;;3.28;1.30;;;;;;;20.04;43.86;100856.09;10398543;28;20197;-88
2022/08/05 14:31:52;;;;;;;1.63;1.42;;;;;;;19.92;44.91;100864.09;10380501;28;20213;-89
2022/08/05 14:37:15;;;;;;;2.40;0.95;;;;;;;19.86;43.39;100865.66;10382437;28;20259;-87
2022/08/05 14:42:40;;;;;;;5.43;1.30;;;;;;;20.22;41.83;100859.22;10386322;28;20212;-86
2022/08/05 14:48:05;;;;;;;2.70;0.55;;;;;;;20.66;40.55;100867.13;10387073;28;20196;-79
2022/08/05 14:53:27;;;;;;;2.88;0.85;;;;;;;20.43;40.38;100859.47;10377348;28;20209;-78
2022/08/05 14:58:50;;;;;;;3.20;0.73;;;;;;;20.55;39.96;100866.19;10388994;28;20232;-80
2022/08/05 15:04:12;;;;;;;1.52;0.65;;;;;;;20.55;39.16;100867.00;10374362;28;20193;-82
2022/08/05 15:09:35;;;;;;;1.60;0.70;;;;;;;20.95;38.38;100871.16;10437376;28;20290;-78
2022/08/05 15:14:57;;;;;;;2.35;0.43;;;;;;;20.80;36.89;100873.03;10451827;28;20219;-83
2022/08/05 15:20:20;;;;;;;4.18;0.70;;;;;;;20.82;36.46;100867.75;10441402;28;20191;-79
2022/08/05 15:25:43;;;;;;;3.40;0.68;;;;;;;21.44;35.27;100873.66;10430221;28;20432;-86
2022/08/05 15:31:05;;;;;;;0.90;0.40;;;;;;;21.41;36.17;100865.84;10445895;28;20782;-80
2022/08/05 15:36:27;;;;;;;1.77;0.60;;;;;;;20.79;36.13;100862.81;10446143;28;20246;-87
2022/08/05 15:41:49;;;;;;;2.22;0.68;;;;;;;21.34;37.25;100857.97;10449820;28;20199;-87
2022/08/05 15:47:12;;;;;;;2.67;0.60;;;;;;;21.67;36.01;100857.03;10453038;28;20191;-88
2022/08/05 15:52:36;;;;;;;2.83;0.50;;;;;;;21.13;35.73;100858.63;10439257;28;20309;-78
2022/08/05 15:57:58;;;;;;;0.98;0.30;;;;;;;20.29;32.43;100862.19;10431174;28;20727;-76
2022/08/05 16:03:21;;;;;;;1.48;0.30;;;;;;;20.27;30.54;100867.47;10411825;28;20227;-77
2022/08/05 16:08:44;;;;;;;0.28;0.20;;;;;;;20.16;31.48;100877.13;10390259;28;20709;-76
2022/08/05 16:14:10;;;;;;;1.05;0.20;;;;;;;19.37;31.78;100892.25;10434094;28;20263;-76
2022/08/05 16:19:34;;;;;;;1.95;0.20;;;;;;;19.71;30.32;100887.50;10420442;28;20177;-76
2022/08/05 16:24:58;;;;;;;1.23;0.22;;;;;;;19.87;30.80;100893.88;10405880;28;20204;-77
2022/08/05 16:30:22;;;;;;;1.13;0.25;;;;;;;19.76;30.24;100892.91;10407605;28;20209;-76
2022/08/05 16:35:45;;;;;;;1.27;0.20;;;;;;;20.04;30.82;100899.00;10412076;28;20545;-78
2022/08/05 16:41:07;;;;;;;2.92;0.57;;;;;;;20.23;30.34;100906.69;10401138;28;20527;-77
2022/08/05 16:46:31;;;;;;;1.77;0.40;;;;;;;20.25;29.85;100915.72;10411008;28;20200;-77
2022/08/05 16:51:54;;;;;;;2.33;0.63;;;;;;;19.87;30.62;100921.66;10418228;28;20278;-77
2022/08/05 16:57:22;;;;;;;2.40;0.22;;;;;;;19.12;31.24;100936.69;10414842;28;20193;-77
2022/08/05 17:02:47;;;;;;;1.85;0.20;;;;;;;19.89;30.32;100931.50;10404865;28;20192;-77
2022/08/05 17:08:09;;;;;;;0.70;0.30;;;;;;;19.76;29.91;100938.66;10437706;28;20243;-81
2022/08/05 17:13:31;;;;;;;1.95;0.57;;;;;;;20.04;30.23;100944.00;10437521;28;20251;-80
2022/08/05 17:18:53;;;;;;;0.60;0.28;;;;;;;21.23;29.24;100950.84;10418406;28;20235;-79
2022/08/05 17:24:42;;;;;;;1.88;0.30;;;;;;;21.01;29.20;100952.69;10415687;28;20204;-78
2022/08/05 17:30:07;;;;;;;1.23;0.28;;;;;;;20.61;30.26;100956.25;10442113;28;20200;-81
2022/08/05 17:35:29;;;;;;;1.63;0.20;;;;;;;20.97;27.75;100963.25;10423130;28;20269;-77
2022/08/05 17:40:51;;;;;;;1.08;0.30;;;;;;;20.66;28.25;100970.25;10448005;28;20956;-80
2022/08/05 17:46:13;;;;;;;1.85;0.25;;;;;;;20.72;28.63;100968.66;10451676;28;20231;-78
2022/08/05 17:51:36;;;;;;;3.08;0.38;;;;;;;20.31;28.34;100971.41;10434276;28;20239;-78
2022/08/05 17:56:58;;;;;;;3.45;0.30;;;;;;;20.74;28.54;100986.31;10430186;28;20216;-78
2022/08/05 18:02:21;;;;;;;0.15;0.10;;;;;;;20.58;29.33;100991.41;10420058;28;20207;-82
2022/08/05 18:07:44;;;;;;;1.65;0.20;;;;;;;20.51;29.52;101006.47;10407792;28;20263;-79
2022/08/05 18:13:06;;;;;;;1.60;0.20;;;;;;;20.14;29.82;101009.16;10442386;28;20251;-77
2022/08/05 18:18:34;;;;;;;0.95;0.30;;;;;;;20.03;30.69;101025.34;10451511;28;20281;-82
2022/08/05 18:24:01;;;;;;;1.17;0.20;;;;;;;20.10;30.81;101034.84;10440262;28;20188;-78
2022/08/05 18:29:23;;;;;;;3.15;0.45;;;;;;;19.87;30.87;101041.81;10437454;28;20195;-83
2022/08/05 18:34:46;;;;;;;2.15;0.35;;;;;;;20.09;30.83;101043.81;10435113;28;20223;-77
2022/08/05 18:40:09;;;;;;;1.58;0.20;;;;;;;20.06;30.33;101056.84;10466396;28;20237;-78
2022/08/05 18:45:33;;;;;;;1.40;0.10;;;;;;;20.37;31.36;101061.47;10451912;28;20176;-78
2022/08/05 18:56:37;;;;;;;0.68;0.10;;;;;;;19.12;31.68;101071.81;10413036;28;20220;-78
2022/08/05 19:02:00;;;;;;;0.30;0.20;;;;;;;19.21;32.83;101074.44;10451099;28;20222;-78
2022/08/05 19:07:22;;;;;;;0.35;0.20;;;;;;;19.88;30.94;101080.66;10453910;28;20258;-79
2022/08/05 19:12:45;;;;;;;2.30;0.30;;;;;;;19.71;30.91;101087.72;10459052;28;20223;-82
2022/08/05 19:18:07;;;;;;;2.08;0.43;;;;;;;19.68;31.40;101091.31;10459094;28;20218;-82
2022/08/05 19:23:30;;;;;;;3.35;0.50;;;;;;;19.23;32.30;101100.63;10445369;28;20196;-79
2022/08/05 19:28:52;;;;;;;1.43;0.33;;;;;;;18.74;33.00;101114.63;10443625;28;20192;-84
2022/08/05 19:34:14;;;;;;;3.63;0.50;;;;;;;19.41;32.87;101110.38;10454197;28;20686;-86
2022/08/05 19:39:37;;;;;;;1.73;0.70;;;;;;;19.12;34.18;101119.56;10445659;28;20596;-83
2022/08/05 19:45:00;;;;;;;4.25;0.30;;;;;;;18.91;34.44;101132.16;10456691;28;20313;-77
2022/08/05 19:50:22;;;;;;;0.50;0.30;;;;;;;18.91;34.63;101149.28;10447096;28;20200;-81
2022/08/05 19:55:44;;;;;;;2.35;0.38;;;;;;;19.03;34.64;101154.06;10450693;28;20308;-79
2022/08/05 20:01:06;;;;;;;1.83;0.25;;;;;;;18.91;34.52;101163.56;10438673;28;20211;-78
2022/08/05 20:06:28;;;;;;;2.05;0.30;;;;;;;19.11;34.54;101183.66;10450195;28;20236;-77
2022/08/05 20:11:50;;;;;;;2.85;0.43;;;;;;;19.10;34.10;101174.25;10450912;28;20612;-83
2022/08/05 20:17:13;;;;;;;5.63;0.40;;;;;;;18.71;35.02;101201.03;10431123;28;20191;-81
2022/08/05 20:22:35;;;;;;;1.05;0.30;;;;;;;17.93;36.54;101206.31;10444803;28;20665;-81
2022/08/05 20:27:57;;;;;;;2.47;0.30;;;;;;;18.17;36.69;101219.59;10453209;28;20200;-84
2022/08/05 20:33:19;;;;;;;2.15;0.40;;;;;;;18.01;36.84;101223.63;10445553;28;20277;-78
2022/08/05 20:38:41;;;;;;;1.60;0.40;;;;;;;17.35;37.87;101224.94;10441971;28;20195;-83
2022/08/05 20:44:04;;;;;;;2.50;0.40;;;;;;;17.41;37.10;101234.91;10438275;28;20264;-82
2022/08/05 20:49:26;;;;;;;2.85;0.40;;;;;;;17.41;37.68;101246.31;10412624;28;20199;-78
2022/08/05 20:54:49;;;;;;;4.03;0.60;;;;;;;17.05;38.94;101246.38;10435628;28;20251;-81
2022/08/05 21:00:13;;;;;;;0.60;0.30;;;;;;;16.98;39.22;101251.84;10433776;28;21351;-78
2022/08/05 21:05:37;;;;;;;2.97;0.47;;;;;;;17.40;38.28;101256.03;10402643;28;20725;-83
2022/08/05 21:10:59;;;;;;;1.95;0.32;;;;;;;17.16;39.24;101256.09;10420143;28;20223;-78
2022/08/05 21:16:25;;;;;;;0.75;0.35;;;;;;;17.12;39.46;101260.84;10426447;28;20255;-78
2022/08/05 21:21:47;;;;;;;2.97;0.40;;;;;;;17.99;37.49;101250.47;10406374;28;20259;-82
2022/08/05 21:27:09;;;;;;;1.00;0.35;;;;;;;17.46;38.71;101260.28;10403166;28;20599;-79
2022/08/05 21:32:31;;;;;;;0.88;0.30;;;;;;;17.60;38.79;101266.41;10419787;28;20243;-84
2022/08/05 21:37:53;;;;;;;3.50;0.30;;;;;;;17.49;39.54;101270.97;10421215;28;20292;-82
2022/08/05 21:43:17;;;;;;;2.22;0.50;;;;;;;17.68;39.30;101278.09;10451443;28;20243;-84
2022/08/05 21:48:40;;;;;;;2.87;0.47;;;;;;;16.69;41.19;101287.03;10448704;28;20277;-83
2022/08/05 21:54:02;;;;;;;2.15;0.40;;;;;;;16.98;40.51;101295.38;10458772;28;20261;-83
2022/08/05 21:59:24;;;;;;;3.03;0.40;;;;;;;17.29;39.30;101291.94;10441406;28;20269;-84
2022/08/05 22:04:46;;;;;;;2.05;0.50;;;;;;;17.20;39.92;101297.72;10432127;28;20255;-77
2022/08/05 22:10:09;;;;;;;2.83;0.20;;;;;;;17.26;39.55;101301.19;10456138;28;20200;-78
2022/08/05 22:15:31;;;;;;;0.90;0.43;;;;;;;17.27;39.86;101308.53;10452485;28;20281;-78
2022/08/05 22:20:54;;;;;;;0.63;0.20;;;;;;;17.11;40.21;101316.97;10458578;28;20228;-78
2022/08/05 22:31:57;;;;;;;2.57;0.40;;;;;;;17.08;40.05;101322.53;10458407;28;20254;-79
2022/08/05 22:37:19;;;;;;;1.80;0.40;;;;;;;17.09;40.44;101329.91;10450255;28;20253;-77
2022/08/05 22:42:41;;;;;;;3.07;0.40;;;;;;;17.10;40.83;101326.72;10458015;28;20227;-78
2022/08/05 22:48:04;;;;;;;2.42;0.60;;;;;;;16.68;41.72;101331.75;10448690;28;20195;-77
2022/08/05 22:53:26;;;;;;;1.75;0.30;;;;;;;16.38;42.06;101341.66;10449371;28;20305;-77
2022/08/05 22:58:48;;;;;;;0.90;0.50;;;;;;;16.82;41.27;101340.78;10461811;28;20188;-78
2022/08/05 23:04:11;;;;;;;1.45;0.40;;;;;;;16.58;41.93;101352.13;10422739;28;20231;-78
2022/08/05 23:09:33;;;;;;;0.90;0.40;;;;;;;16.50;42.04;101353.06;10439294;28;20691;-78
2022/08/05 23:14:55;;;;;;;2.90;0.60;;;;;;;16.23;42.19;101359.38;10429540;28;20644;-79
2022/08/05 23:20:17;;;;;;;1.60;0.40;;;;;;;16.28;42.05;101362.00;10414880;28;20231;-78
2022/08/05 23:25:40;;;;;;;2.72;0.40;;;;;;;16.40;41.35;101359.22;10417329;28;20684;-79
2022/08/05 23:31:02;;;;;;;3.50;0.70;;;;;;;16.44;41.53;101377.22;10425809;28;20235;-78
2022/08/05 23:36:24;;;;;;;1.83;0.40;;;;;;;15.99;42.03;101399.88;10453750;28;20301;-77
2022/08/05 23:41:46;;;;;;;1.20;0.37;;;;;;;15.77;42.58;101399.03;10448127;28;20265;-78
2022/08/05 23:47:08;;;;;;;2.15;0.40;;;;;;;15.76;42.40;101402.22;10455005;28;20302;-78
2022/08/05 23:52:33;;;;;;;2.30;0.30;;;;;;;15.92;42.01;101394.72;10453749;28;20187;-77
2022/08/05 23:57:55;;;;;;;1.67;0.50;;;;;;;15.98;42.01;101404.72;10455791;28;20191;-78
